sensor_id;sensor_type;location;lat;lon;timestamp;temperature;humidity
13596;DHT22;6868;52.544;13.416;2022-08-21T00:01:31;20.00;99.90
13596;DHT22;6868;52.544;13.416;2022-08-21T00:04:03;19.90;99.90
13596;DHT22;6868;52.544;13.416;2022-08-21T00:06:31;19.90;99.90
13596;DHT22;6868;52.544;13.416;2022-08-21T00:08:59;19.90;99.90
13596;DHT22;6868;52.544;13.416;2022-08-21T00:11:25;19.90;99.90
13596;DHT22;6868;52.544;13.416;2022-08-21T00:13:53;19.80;99.90
13596;DHT22;6868;52.544;13.416;2022-08-21T00:16:19;19.80;99.90
13596;DHT22;6868;52.544;13.416;2022-08-21T00:18:46;19.70;99.90
13596;DHT22;6868;52.544;13.416;2022-08-21T00:21:13;19.70;99.90
13596;DHT22;6868;52.544;13.416;2022-08-21T00:23:42;19.70;99.90
13596;DHT22;6868;52.544;13.416;2022-08-21T00:26:09;19.70;99.90
13596;DHT22;6868;52.544;13.416;2022-08-21T00:28:35;19.80;99.90
13596;DHT22;6868;52.544;13.416;2022-08-21T00:31:02;20.00;99.90
13596;DHT22;6868;52.544;13.416;2022-08-21T00:33:30;19.60;99.90
13596;DHT22;6868;52.544;13.416;2022-08-21T00:35:56;19.60;99.90
13596;DHT22;6868;52.544;13.416;2022-08-21T00:38:23;19.60;99.90
13596;DHT22;6868;52.544;13.416;2022-08-21T00:40:53;19.60;99.90
13596;DHT22;6868;52.544;13.416;2022-08-21T00:43:22;19.60;99.90
13596;DHT22;6868;52.544;13.416;2022-08-21T00:45:49;19.60;99.90
13596;DHT22;6868;52.544;13.416;2022-08-21T00:48:16;19.60;99.90
13596;DHT22;6868;52.544;13.416;2022-08-21T00:50:44;19.60;99.90
13596;DHT22;6868;52.544;13.416;2022-08-21T00:53:12;19.60;99.90
13596;DHT22;6868;52.544;13.416;2022-08-21T00:55:39;19.50;99.90
13596;DHT22;6868;52.544;13.416;2022-08-21T00:58:09;19.60;99.90
13596;DHT22;6868;52.544;13.416;2022-08-21T01:00:38;19.60;99.90
13596;DHT22;6868;52.544;13.416;2022-08-21T01:03:07;19.50;99.90
13596;DHT22;6868;52.544;13.416;2022-08-21T01:05:34;19.60;99.90
13596;DHT22;6868;52.544;13.416;2022-08-21T01:08:01;19.70;99.90
13596;DHT22;6868;52.544;13.416;2022-08-21T01:10:28;19.70;99.90
13596;DHT22;6868;52.544;13.416;2022-08-21T01:12:55;19.70;99.90
13596;DHT22;6868;52.544;13.416;2022-08-21T01:15:26;19.60;99.90
13596;DHT22;6868;52.544;13.416;2022-08-21T01:17:55;19.50;99.90
13596;DHT22;6868;52.544;13.416;2022-08-21T01:20:22;19.50;99.90
13596;DHT22;6868;52.544;13.416;2022-08-21T01:22:50;19.40;99.90
13596;DHT22;6868;52.544;13.416;2022-08-21T01:25:17;19.40;99.90
13596;DHT22;6868;52.544;13.416;2022-08-21T01:27:44;19.30;99.90
13596;DHT22;6868;52.544;13.416;2022-08-21T01:30:12;19.30;99.90
13596;DHT22;6868;52.544;13.416;2022-08-21T01:32:40;19.30;99.90
13596;DHT22;6868;52.544;13.416;2022-08-21T01:35:07;19.20;99.90
13596;DHT22;6868;52.544;13.416;2022-08-21T01:37:34;19.30;99.90
13596;DHT22;6868;52.544;13.416;2022-08-21T01:40:02;19.30;99.90
13596;DHT22;6868;52.544;13.416;2022-08-21T01:42:29;19.30;99.90
13596;DHT22;6868;52.544;13.416;2022-08-21T01:44:56;19.30;99.90
13596;DHT22;6868;52.544;13.416;2022-08-21T01:47:23;19.20;99.90
13596;DHT22;6868;52.544;13.416;2022-08-21T01:49:50;19.20;99.90
13596;DHT22;6868;52.544;13.416;2022-08-21T01:52:17;19.20;99.90
13596;DHT22;6868;52.544;13.416;2022-08-21T01:54:44;18.70;99.90
13596;DHT22;6868;52.544;13.416;2022-08-21T01:57:13;18.90;99.90
13596;DHT22;6868;52.544;13.416;2022-08-21T01:59:40;18.90;99.90
13596;DHT22;6868;52.544;13.416;2022-08-21T02:02:07;18.90;99.90
13596;DHT22;6868;52.544;13.416;2022-08-21T02:04:33;18.90;99.90
13596;DHT22;6868;52.544;13.416;2022-08-21T02:07:01;18.90;99.90
13596;DHT22;6868;52.544;13.416;2022-08-21T02:09:30;18.80;99.90
13596;DHT22;6868;52.544;13.416;2022-08-21T02:11:58;18.80;99.90
13596;DHT22;6868;52.544;13.416;2022-08-21T02:14:27;18.80;99.90
13596;DHT22;6868;52.544;13.416;2022-08-21T02:16:54;18.80;99.90
13596;DHT22;6868;52.544;13.416;2022-08-21T02:19:20;18.80;99.90
13596;DHT22;6868;52.544;13.416;2022-08-21T02:21:47;18.80;99.90
13596;DHT22;6868;52.544;13.416;2022-08-21T02:24:14;18.80;99.90
13596;DHT22;6868;52.544;13.416;2022-08-21T02:26:41;18.70;99.90
13596;DHT22;6868;52.544;13.416;2022-08-21T02:29:08;18.70;99.90
13596;DHT22;6868;52.544;13.416;2022-08-21T02:31:36;18.60;99.90
13596;DHT22;6868;52.544;13.416;2022-08-21T02:34:04;18.60;99.90
13596;DHT22;6868;52.544;13.416;2022-08-21T02:36:31;18.60;99.90
13596;DHT22;6868;52.544;13.416;2022-08-21T02:38:58;18.60;99.90
13596;DHT22;6868;52.544;13.416;2022-08-21T02:41:25;18.60;99.90
13596;DHT22;6868;52.544;13.416;2022-08-21T02:43:51;18.50;99.90
13596;DHT22;6868;52.544;13.416;2022-08-21T02:46:19;18.70;99.90
13596;DHT22;6868;52.544;13.416;2022-08-21T02:48:47;18.50;99.90
13596;DHT22;6868;52.544;13.416;2022-08-21T02:51:14;18.50;99.90
13596;DHT22;6868;52.544;13.416;2022-08-21T02:53:43;18.50;99.90
13596;DHT22;6868;52.544;13.416;2022-08-21T02:56:12;18.50;99.90
13596;DHT22;6868;52.544;13.416;2022-08-21T02:58:40;18.50;99.90
13596;DHT22;6868;52.544;13.416;2022-08-21T03:01:07;18.80;99.90
13596;DHT22;6868;52.544;13.416;2022-08-21T03:03:35;18.40;99.90
13596;DHT22;6868;52.544;13.416;2022-08-21T03:06:03;18.20;99.90
13596;DHT22;6868;52.544;13.416;2022-08-21T03:08:30;18.40;99.90
13596;DHT22;6868;52.544;13.416;2022-08-21T03:10:57;18.30;99.90
13596;DHT22;6868;52.544;13.416;2022-08-21T03:13:25;18.20;99.90
13596;DHT22;6868;52.544;13.416;2022-08-21T03:15:52;18.20;99.90
13596;DHT22;6868;52.544;13.416;2022-08-21T03:18:19;18.10;99.90
13596;DHT22;6868;52.544;13.416;2022-08-21T03:20:45;18.10;99.90
13596;DHT22;6868;52.544;13.416;2022-08-21T03:23:14;18.20;99.90
13596;DHT22;6868;52.544;13.416;2022-08-21T03:25:41;18.10;99.90
13596;DHT22;6868;52.544;13.416;2022-08-21T03:28:09;18.10;99.90
13596;DHT22;6868;52.544;13.416;2022-08-21T03:30:36;18.10;99.90
13596;DHT22;6868;52.544;13.416;2022-08-21T03:33:02;18.00;99.90
13596;DHT22;6868;52.544;13.416;2022-08-21T03:35:31;18.10;99.90
13596;DHT22;6868;52.544;13.416;2022-08-21T03:37:57;18.30;99.90
13596;DHT22;6868;52.544;13.416;2022-08-21T03:40:27;18.10;99.90
13596;DHT22;6868;52.544;13.416;2022-08-21T03:42:53;18.20;99.90
13596;DHT22;6868;52.544;13.416;2022-08-21T03:45:20;18.10;99.90
13596;DHT22;6868;52.544;13.416;2022-08-21T03:47:51;18.10;99.90
13596;DHT22;6868;52.544;13.416;2022-08-21T03:50:18;17.90;99.90
13596;DHT22;6868;52.544;13.416;2022-08-21T03:52:45;17.90;99.90
13596;DHT22;6868;52.544;13.416;2022-08-21T03:55:12;17.90;99.90
13596;DHT22;6868;52.544;13.416;2022-08-21T03:57:40;17.90;99.90
13596;DHT22;6868;52.544;13.416;2022-08-21T04:00:08;17.90;99.90
13596;DHT22;6868;52.544;13.416;2022-08-21T04:02:35;17.90;99.90
13596;DHT22;6868;52.544;13.416;2022-08-21T04:05:02;17.90;99.90
13596;DHT22;6868;52.544;13.416;2022-08-21T04:07:29;17.80;99.90
13596;DHT22;6868;52.544;13.416;2022-08-21T04:09:56;17.80;99.90
13596;DHT22;6868;52.544;13.416;2022-08-21T04:12:23;17.70;99.90
13596;DHT22;6868;52.544;13.416;2022-08-21T04:14:51;17.70;99.90
13596;DHT22;6868;52.544;13.416;2022-08-21T04:17:19;17.60;99.90
13596;DHT22;6868;52.544;13.416;2022-08-21T04:19:46;17.80;99.90
13596;DHT22;6868;52.544;13.416;2022-08-21T04:22:13;17.80;99.90
13596;DHT22;6868;52.544;13.416;2022-08-21T04:24:40;18.10;99.90
13596;DHT22;6868;52.544;13.416;2022-08-21T04:27:06;17.80;99.90
13596;DHT22;6868;52.544;13.416;2022-08-21T04:29:33;17.80;99.90
13596;DHT22;6868;52.544;13.416;2022-08-21T04:32:01;17.50;99.90
13596;DHT22;6868;52.544;13.416;2022-08-21T04:34:28;17.30;99.90
13596;DHT22;6868;52.544;13.416;2022-08-21T04:36:55;17.80;99.90
13596;DHT22;6868;52.544;13.416;2022-08-21T04:39:21;17.80;99.90
13596;DHT22;6868;52.544;13.416;2022-08-21T04:41:48;17.10;99.90
13596;DHT22;6868;52.544;13.416;2022-08-21T04:44:15;17.70;99.90
13596;DHT22;6868;52.544;13.416;2022-08-21T04:46:41;17.80;99.90
13596;DHT22;6868;52.544;13.416;2022-08-21T04:49:09;17.60;99.90
13596;DHT22;6868;52.544;13.416;2022-08-21T04:51:36;17.70;99.90
13596;DHT22;6868;52.544;13.416;2022-08-21T04:54:06;17.80;99.90
13596;DHT22;6868;52.544;13.416;2022-08-21T04:56:35;18.70;99.90
13596;DHT22;6868;52.544;13.416;2022-08-21T04:59:04;18.10;99.90
13596;DHT22;6868;52.544;13.416;2022-08-21T05:01:32;18.10;99.90
13596;DHT22;6868;52.544;13.416;2022-08-21T05:04:00;18.00;99.90
13596;DHT22;6868;52.544;13.416;2022-08-21T05:06:29;17.90;99.90
13596;DHT22;6868;52.544;13.416;2022-08-21T05:08:58;17.90;99.90
13596;DHT22;6868;52.544;13.416;2022-08-21T05:11:24;17.10;99.90
13596;DHT22;6868;52.544;13.416;2022-08-21T05:13:51;17.90;99.90
13596;DHT22;6868;52.544;13.416;2022-08-21T05:16:19;17.60;99.90
13596;DHT22;6868;52.544;13.416;2022-08-21T05:18:46;17.30;99.90
13596;DHT22;6868;52.544;13.416;2022-08-21T05:21:13;17.40;99.90
13596;DHT22;6868;52.544;13.416;2022-08-21T05:23:41;18.00;99.90
13596;DHT22;6868;52.544;13.416;2022-08-21T05:26:08;18.00;99.90
13596;DHT22;6868;52.544;13.416;2022-08-21T05:28:35;18.30;99.90
13596;DHT22;6868;52.544;13.416;2022-08-21T05:31:02;18.00;99.90
13596;DHT22;6868;52.544;13.416;2022-08-21T05:33:29;18.10;99.90
13596;DHT22;6868;52.544;13.416;2022-08-21T05:35:56;18.10;99.90
13596;DHT22;6868;52.544;13.416;2022-08-21T05:38:23;18.10;99.90
13596;DHT22;6868;52.544;13.416;2022-08-21T05:40:51;18.20;99.90
13596;DHT22;6868;52.544;13.416;2022-08-21T05:43:18;18.20;99.90
13596;DHT22;6868;52.544;13.416;2022-08-21T05:45:45;18.40;99.90
13596;DHT22;6868;52.544;13.416;2022-08-21T05:48:12;18.40;99.90
13596;DHT22;6868;52.544;13.416;2022-08-21T05:50:40;18.50;99.90
13596;DHT22;6868;52.544;13.416;2022-08-21T05:53:07;18.30;99.90
13596;DHT22;6868;52.544;13.416;2022-08-21T05:55:35;18.40;99.90
13596;DHT22;6868;52.544;13.416;2022-08-21T05:58:04;18.10;99.90
13596;DHT22;6868;52.544;13.416;2022-08-21T06:00:31;18.50;99.90
13596;DHT22;6868;52.544;13.416;2022-08-21T06:03:01;18.60;99.90
13596;DHT22;6868;52.544;13.416;2022-08-21T06:05:29;18.60;99.90
13596;DHT22;6868;52.544;13.416;2022-08-21T06:07:58;18.70;99.90
13596;DHT22;6868;52.544;13.416;2022-08-21T06:10:25;18.60;99.90
13596;DHT22;6868;52.544;13.416;2022-08-21T06:12:53;18.50;99.90
13596;DHT22;6868;52.544;13.416;2022-08-21T06:15:25;18.70;99.90
13596;DHT22;6868;52.544;13.416;2022-08-21T06:17:52;18.50;99.90
13596;DHT22;6868;52.544;13.416;2022-08-21T06:20:19;18.60;99.90
13596;DHT22;6868;52.544;13.416;2022-08-21T06:22:48;18.40;99.90
13596;DHT22;6868;52.544;13.416;2022-08-21T06:25:15;17.70;99.90
13596;DHT22;6868;52.544;13.416;2022-08-21T06:27:42;18.60;99.90
13596;DHT22;6868;52.544;13.416;2022-08-21T06:30:11;19.30;99.90
13596;DHT22;6868;52.544;13.416;2022-08-21T06:32:42;18.90;99.90
13596;DHT22;6868;52.544;13.416;2022-08-21T06:35:11;18.80;99.90
13596;DHT22;6868;52.544;13.416;2022-08-21T06:37:38;19.00;99.90
13596;DHT22;6868;52.544;13.416;2022-08-21T06:40:05;19.10;99.90
13596;DHT22;6868;52.544;13.416;2022-08-21T06:42:32;19.20;99.90
13596;DHT22;6868;52.544;13.416;2022-08-21T06:44:58;19.20;99.90
13596;DHT22;6868;52.544;13.416;2022-08-21T06:47:26;19.30;99.90
13596;DHT22;6868;52.544;13.416;2022-08-21T06:49:54;19.30;99.90
13596;DHT22;6868;52.544;13.416;2022-08-21T06:52:21;19.40;99.90
13596;DHT22;6868;52.544;13.416;2022-08-21T06:54:48;19.50;99.90
13596;DHT22;6868;52.544;13.416;2022-08-21T06:57:15;19.40;99.90
13596;DHT22;6868;52.544;13.416;2022-08-21T06:59:42;19.40;99.90
13596;DHT22;6868;52.544;13.416;2022-08-21T07:02:08;19.70;99.90
13596;DHT22;6868;52.544;13.416;2022-08-21T07:04:35;19.70;99.90
13596;DHT22;6868;52.544;13.416;2022-08-21T07:07:03;19.90;99.90
13596;DHT22;6868;52.544;13.416;2022-08-21T07:09:31;20.10;99.90
13596;DHT22;6868;52.544;13.416;2022-08-21T07:11:58;20.10;99.90
13596;DHT22;6868;52.544;13.416;2022-08-21T07:14:25;20.30;99.90
13596;DHT22;6868;52.544;13.416;2022-08-21T07:16:51;20.50;99.90
13596;DHT22;6868;52.544;13.416;2022-08-21T07:19:20;20.60;99.90
13596;DHT22;6868;52.544;13.416;2022-08-21T07:21:47;20.70;99.90
13596;DHT22;6868;52.544;13.416;2022-08-21T07:24:15;21.00;99.90
13596;DHT22;6868;52.544;13.416;2022-08-21T07:26:42;21.30;99.90
13596;DHT22;6868;52.544;13.416;2022-08-21T07:29:09;21.30;99.90
13596;DHT22;6868;52.544;13.416;2022-08-21T07:31:43;21.50;99.90
13596;DHT22;6868;52.544;13.416;2022-08-21T07:34:10;21.80;99.90
13596;DHT22;6868;52.544;13.416;2022-08-21T07:36:40;21.80;99.90
13596;DHT22;6868;52.544;13.416;2022-08-21T07:39:06;21.90;99.90
13596;DHT22;6868;52.544;13.416;2022-08-21T07:41:38;21.00;99.90
13596;DHT22;6868;52.544;13.416;2022-08-21T07:44:06;21.70;99.90
13596;DHT22;6868;52.544;13.416;2022-08-21T07:46:36;21.30;99.90
13596;DHT22;6868;52.544;13.416;2022-08-21T07:49:02;21.00;99.90
13596;DHT22;6868;52.544;13.416;2022-08-21T07:51:30;21.30;99.90
13596;DHT22;6868;52.544;13.416;2022-08-21T07:53:59;21.50;99.90
13596;DHT22;6868;52.544;13.416;2022-08-21T07:56:26;21.70;99.90
13596;DHT22;6868;52.544;13.416;2022-08-21T07:58:54;21.60;99.90
13596;DHT22;6868;52.544;13.416;2022-08-21T08:01:22;21.50;99.90
13596;DHT22;6868;52.544;13.416;2022-08-21T08:03:49;21.70;99.90
13596;DHT22;6868;52.544;13.416;2022-08-21T08:06:16;21.60;99.90
13596;DHT22;6868;52.544;13.416;2022-08-21T08:08:44;21.40;99.90
13596;DHT22;6868;52.544;13.416;2022-08-21T08:11:14;21.70;99.90
13596;DHT22;6868;52.544;13.416;2022-08-21T08:13:42;21.80;99.90
13596;DHT22;6868;52.544;13.416;2022-08-21T08:16:10;21.90;99.90
13596;DHT22;6868;52.544;13.416;2022-08-21T08:18:37;21.70;99.90
13596;DHT22;6868;52.544;13.416;2022-08-21T08:21:04;21.70;99.90
13596;DHT22;6868;52.544;13.416;2022-08-21T08:23:31;21.70;99.90
13596;DHT22;6868;52.544;13.416;2022-08-21T08:25:58;21.60;99.90
13596;DHT22;6868;52.544;13.416;2022-08-21T08:28:25;21.50;99.90
13596;DHT22;6868;52.544;13.416;2022-08-21T08:30:52;21.20;99.90
13596;DHT22;6868;52.544;13.416;2022-08-21T08:33:20;21.20;99.90
13596;DHT22;6868;52.544;13.416;2022-08-21T08:35:50;21.50;99.90
13596;DHT22;6868;52.544;13.416;2022-08-21T08:38:18;21.80;99.90
13596;DHT22;6868;52.544;13.416;2022-08-21T08:40:46;21.90;99.90
13596;DHT22;6868;52.544;13.416;2022-08-21T08:43:14;21.90;99.90
13596;DHT22;6868;52.544;13.416;2022-08-21T08:45:42;21.80;99.90
13596;DHT22;6868;52.544;13.416;2022-08-21T08:48:11;21.90;99.90
13596;DHT22;6868;52.544;13.416;2022-08-21T08:50:44;21.80;99.90
13596;DHT22;6868;52.544;13.416;2022-08-21T08:53:14;21.70;99.90
13596;DHT22;6868;52.544;13.416;2022-08-21T08:55:42;21.90;99.90
13596;DHT22;6868;52.544;13.416;2022-08-21T08:58:11;21.80;99.90
13596;DHT22;6868;52.544;13.416;2022-08-21T09:00:38;21.80;99.90
13596;DHT22;6868;52.544;13.416;2022-08-21T09:03:05;21.90;99.90
13596;DHT22;6868;52.544;13.416;2022-08-21T09:05:35;21.90;99.90
13596;DHT22;6868;52.544;13.416;2022-08-21T09:08:13;21.80;99.90
13596;DHT22;6868;52.544;13.416;2022-08-21T09:10:45;21.80;99.90
13596;DHT22;6868;52.544;13.416;2022-08-21T09:13:17;22.10;99.90
13596;DHT22;6868;52.544;13.416;2022-08-21T09:15:46;22.10;99.90
13596;DHT22;6868;52.544;13.416;2022-08-21T09:18:20;22.10;99.90
13596;DHT22;6868;52.544;13.416;2022-08-21T09:20:56;22.20;99.90
13596;DHT22;6868;52.544;13.416;2022-08-21T09:23:30;22.30;99.90
13596;DHT22;6868;52.544;13.416;2022-08-21T09:26:01;22.10;99.90
13596;DHT22;6868;52.544;13.416;2022-08-21T09:28:30;22.00;99.90
13596;DHT22;6868;52.544;13.416;2022-08-21T09:30:58;22.20;99.90
13596;DHT22;6868;52.544;13.416;2022-08-21T09:33:28;22.10;99.90
13596;DHT22;6868;52.544;13.416;2022-08-21T09:35:55;22.30;99.90
13596;DHT22;6868;52.544;13.416;2022-08-21T09:38:25;22.40;99.90
13596;DHT22;6868;52.544;13.416;2022-08-21T09:43:51;22.40;99.90
13596;DHT22;6868;52.544;13.416;2022-08-21T09:46:20;22.50;99.90
13596;DHT22;6868;52.544;13.416;2022-08-21T09:48:47;22.60;99.90
13596;DHT22;6868;52.544;13.416;2022-08-21T09:51:17;22.60;99.90
13596;DHT22;6868;52.544;13.416;2022-08-21T09:53:45;22.80;99.90
13596;DHT22;6868;52.544;13.416;2022-08-21T09:56:17;22.90;99.90
13596;DHT22;6868;52.544;13.416;2022-08-21T09:59:11;22.90;99.90
13596;DHT22;6868;52.544;13.416;2022-08-21T10:01:41;22.90;99.90
13596;DHT22;6868;52.544;13.416;2022-08-21T10:04:09;22.90;99.90
13596;DHT22;6868;52.544;13.416;2022-08-21T10:06:35;23.00;99.90
13596;DHT22;6868;52.544;13.416;2022-08-21T10:09:03;23.10;99.90
13596;DHT22;6868;52.544;13.416;2022-08-21T10:11:32;23.10;99.90
13596;DHT22;6868;52.544;13.416;2022-08-21T10:14:01;22.90;99.90
13596;DHT22;6868;52.544;13.416;2022-08-21T10:16:33;22.80;99.90
13596;DHT22;6868;52.544;13.416;2022-08-21T10:19:03;23.00;99.90
13596;DHT22;6868;52.544;13.416;2022-08-21T10:21:36;22.90;99.90
13596;DHT22;6868;52.544;13.416;2022-08-21T10:24:05;22.60;99.90
13596;DHT22;6868;52.544;13.416;2022-08-21T10:26:40;22.60;99.90
13596;DHT22;6868;52.544;13.416;2022-08-21T10:29:12;22.60;99.90
13596;DHT22;6868;52.544;13.416;2022-08-21T10:31:48;22.80;99.90
13596;DHT22;6868;52.544;13.416;2022-08-21T10:34:20;23.10;99.90
13596;DHT22;6868;52.544;13.416;2022-08-21T10:36:51;23.10;99.90
13596;DHT22;6868;52.544;13.416;2022-08-21T10:39:20;23.20;99.90
13596;DHT22;6868;52.544;13.416;2022-08-21T10:41:54;23.30;99.90
13596;DHT22;6868;52.544;13.416;2022-08-21T10:44:30;23.50;99.90
13596;DHT22;6868;52.544;13.416;2022-08-21T10:47:01;23.50;99.90
13596;DHT22;6868;52.544;13.416;2022-08-21T10:49:36;23.50;99.90
13596;DHT22;6868;52.544;13.416;2022-08-21T10:52:09;23.40;99.90
13596;DHT22;6868;52.544;13.416;2022-08-21T10:54:44;23.20;99.90
13596;DHT22;6868;52.544;13.416;2022-08-21T10:57:16;23.00;99.90
13596;DHT22;6868;52.544;13.416;2022-08-21T10:59:47;23.10;99.90
13596;DHT22;6868;52.544;13.416;2022-08-21T11:02:18;23.30;99.90
13596;DHT22;6868;52.544;13.416;2022-08-21T11:04:50;23.40;99.90
13596;DHT22;6868;52.544;13.416;2022-08-21T11:07:20;23.30;99.90
13596;DHT22;6868;52.544;13.416;2022-08-21T11:09:48;23.30;99.90
13596;DHT22;6868;52.544;13.416;2022-08-21T11:12:19;23.20;99.90
13596;DHT22;6868;52.544;13.416;2022-08-21T11:14:49;23.50;99.90
13596;DHT22;6868;52.544;13.416;2022-08-21T11:17:22;23.70;99.90
13596;DHT22;6868;52.544;13.416;2022-08-21T11:19:52;24.20;99.90
13596;DHT22;6868;52.544;13.416;2022-08-21T11:22:21;24.50;99.90
13596;DHT22;6868;52.544;13.416;2022-08-21T11:24:52;24.10;99.90
13596;DHT22;6868;52.544;13.416;2022-08-21T11:27:22;24.20;99.90
13596;DHT22;6868;52.544;13.416;2022-08-21T11:29:52;24.50;99.90
13596;DHT22;6868;52.544;13.416;2022-08-21T11:32:35;24.50;99.90
13596;DHT22;6868;52.544;13.416;2022-08-21T11:35:08;24.30;99.90
13596;DHT22;6868;52.544;13.416;2022-08-21T11:37:43;24.10;99.90
13596;DHT22;6868;52.544;13.416;2022-08-21T11:40:17;24.40;99.90
13596;DHT22;6868;52.544;13.416;2022-08-21T11:42:47;24.60;99.90
13596;DHT22;6868;52.544;13.416;2022-08-21T11:45:18;24.60;99.90
13596;DHT22;6868;52.544;13.416;2022-08-21T11:47:58;24.80;99.60
13596;DHT22;6868;52.544;13.416;2022-08-21T11:50:32;24.20;96.70
13596;DHT22;6868;52.544;13.416;2022-08-21T11:53:04;24.20;98.00
13596;DHT22;6868;52.544;13.416;2022-08-21T11:55:35;24.00;97.70
13596;DHT22;6868;52.544;13.416;2022-08-21T11:58:07;23.90;97.60
13596;DHT22;6868;52.544;13.416;2022-08-21T12:00:38;24.00;97.00
13596;DHT22;6868;52.544;13.416;2022-08-21T12:03:08;24.10;96.20
13596;DHT22;6868;52.544;13.416;2022-08-21T12:05:36;24.50;94.60
13596;DHT22;6868;52.544;13.416;2022-08-21T12:08:05;24.50;84.70
13596;DHT22;6868;52.544;13.416;2022-08-21T12:10:34;24.40;88.10
13596;DHT22;6868;52.544;13.416;2022-08-21T12:13:09;24.50;90.40
13596;DHT22;6868;52.544;13.416;2022-08-21T12:15:36;24.40;91.40
13596;DHT22;6868;52.544;13.416;2022-08-21T12:18:04;24.10;91.60
13596;DHT22;6868;52.544;13.416;2022-08-21T12:20:41;24.20;93.10
13596;DHT22;6868;52.544;13.416;2022-08-21T12:23:16;24.30;91.50
13596;DHT22;6868;52.544;13.416;2022-08-21T12:25:44;24.30;91.30
13596;DHT22;6868;52.544;13.416;2022-08-21T12:28:14;24.50;90.70
13596;DHT22;6868;52.544;13.416;2022-08-21T12:30:42;24.70;93.30
13596;DHT22;6868;52.544;13.416;2022-08-21T12:33:19;24.80;91.40
13596;DHT22;6868;52.544;13.416;2022-08-21T12:35:47;24.80;91.90
13596;DHT22;6868;52.544;13.416;2022-08-21T12:38:16;24.90;92.30
13596;DHT22;6868;52.544;13.416;2022-08-21T12:40:47;25.10;90.10
13596;DHT22;6868;52.544;13.416;2022-08-21T12:43:16;25.10;90.20
13596;DHT22;6868;52.544;13.416;2022-08-21T12:45:46;24.80;87.90
13596;DHT22;6868;52.544;13.416;2022-08-21T12:48:14;24.90;91.60
13596;DHT22;6868;52.544;13.416;2022-08-21T12:50:45;25.20;88.00
13596;DHT22;6868;52.544;13.416;2022-08-21T12:53:15;25.30;82.70
13596;DHT22;6868;52.544;13.416;2022-08-21T12:55:47;25.50;80.90
13596;DHT22;6868;52.544;13.416;2022-08-21T12:58:17;25.20;77.30
13596;DHT22;6868;52.544;13.416;2022-08-21T13:00:47;25.20;77.60
13596;DHT22;6868;52.544;13.416;2022-08-21T13:03:14;25.40;80.40
13596;DHT22;6868;52.544;13.416;2022-08-21T13:05:41;25.30;84.30
13596;DHT22;6868;52.544;13.416;2022-08-21T13:08:09;25.30;84.00
13596;DHT22;6868;52.544;13.416;2022-08-21T13:10:39;25.20;85.60
13596;DHT22;6868;52.544;13.416;2022-08-21T13:13:06;25.10;86.50
13596;DHT22;6868;52.544;13.416;2022-08-21T13:15:35;25.00;86.30
13596;DHT22;6868;52.544;13.416;2022-08-21T13:18:03;25.00;88.60
13596;DHT22;6868;52.544;13.416;2022-08-21T13:20:31;25.00;87.30
13596;DHT22;6868;52.544;13.416;2022-08-21T13:22:59;24.80;88.50
13596;DHT22;6868;52.544;13.416;2022-08-21T13:25:28;24.60;89.30
13596;DHT22;6868;52.544;13.416;2022-08-21T13:28:00;24.60;90.70
13596;DHT22;6868;52.544;13.416;2022-08-21T13:30:33;24.90;89.20
13596;DHT22;6868;52.544;13.416;2022-08-21T13:33:00;24.90;89.30
13596;DHT22;6868;52.544;13.416;2022-08-21T13:35:28;24.90;90.20
13596;DHT22;6868;52.544;13.416;2022-08-21T13:37:56;25.20;89.10
13596;DHT22;6868;52.544;13.416;2022-08-21T13:40:25;25.20;88.00
13596;DHT22;6868;52.544;13.416;2022-08-21T13:42:57;25.30;86.40
13596;DHT22;6868;52.544;13.416;2022-08-21T13:45:26;25.30;90.00
13596;DHT22;6868;52.544;13.416;2022-08-21T13:47:54;25.00;91.10
13596;DHT22;6868;52.544;13.416;2022-08-21T13:50:22;25.10;91.60
13596;DHT22;6868;52.544;13.416;2022-08-21T13:52:54;24.80;91.70
13596;DHT22;6868;52.544;13.416;2022-08-21T13:55:21;24.60;92.10
13596;DHT22;6868;52.544;13.416;2022-08-21T13:57:47;24.40;93.60
13596;DHT22;6868;52.544;13.416;2022-08-21T14:00:26;24.40;95.30
13596;DHT22;6868;52.544;13.416;2022-08-21T14:02:53;24.40;96.60
13596;DHT22;6868;52.544;13.416;2022-08-21T14:05:26;24.40;98.00
13596;DHT22;6868;52.544;13.416;2022-08-21T14:07:56;24.30;99.10
13596;DHT22;6868;52.544;13.416;2022-08-21T14:10:27;24.60;99.20
13596;DHT22;6868;52.544;13.416;2022-08-21T14:12:57;24.80;99.40
13596;DHT22;6868;52.544;13.416;2022-08-21T14:15:27;25.00;99.90
13596;DHT22;6868;52.544;13.416;2022-08-21T14:17:57;25.20;99.80
13596;DHT22;6868;52.544;13.416;2022-08-21T14:20:34;25.30;99.40
13596;DHT22;6868;52.544;13.416;2022-08-21T14:23:01;25.60;98.40
13596;DHT22;6868;52.544;13.416;2022-08-21T14:25:30;25.60;98.20
13596;DHT22;6868;52.544;13.416;2022-08-21T14:27:58;25.60;99.80
13596;DHT22;6868;52.544;13.416;2022-08-21T14:30:28;25.40;98.80
13596;DHT22;6868;52.544;13.416;2022-08-21T14:32:55;25.30;99.30
13596;DHT22;6868;52.544;13.416;2022-08-21T14:35:22;25.20;98.70
13596;DHT22;6868;52.544;13.416;2022-08-21T14:37:49;25.00;98.50
13596;DHT22;6868;52.544;13.416;2022-08-21T14:40:16;24.90;99.90
13596;DHT22;6868;52.544;13.416;2022-08-21T14:42:44;24.80;99.90
13596;DHT22;6868;52.544;13.416;2022-08-21T14:45:13;24.70;99.90
13596;DHT22;6868;52.544;13.416;2022-08-21T14:47:41;24.60;99.90
13596;DHT22;6868;52.544;13.416;2022-08-21T14:50:09;24.50;99.90
13596;DHT22;6868;52.544;13.416;2022-08-21T14:52:35;24.40;99.90
13596;DHT22;6868;52.544;13.416;2022-08-21T14:55:03;24.40;99.90
13596;DHT22;6868;52.544;13.416;2022-08-21T14:57:30;24.40;99.90
13596;DHT22;6868;52.544;13.416;2022-08-21T14:59:57;24.40;99.90
13596;DHT22;6868;52.544;13.416;2022-08-21T15:02:24;24.30;99.90
13596;DHT22;6868;52.544;13.416;2022-08-21T15:04:53;24.20;99.90
13596;DHT22;6868;52.544;13.416;2022-08-21T15:07:19;24.30;99.90
13596;DHT22;6868;52.544;13.416;2022-08-21T15:09:46;24.10;99.90
13596;DHT22;6868;52.544;13.416;2022-08-21T15:12:13;24.10;99.90
13596;DHT22;6868;52.544;13.416;2022-08-21T15:14:40;23.90;99.90
13596;DHT22;6868;52.544;13.416;2022-08-21T15:17:07;24.00;99.90
13596;DHT22;6868;52.544;13.416;2022-08-21T15:19:34;23.80;99.90
13596;DHT22;6868;52.544;13.416;2022-08-21T15:22:03;23.80;99.90
13596;DHT22;6868;52.544;13.416;2022-08-21T15:24:29;23.80;99.90
13596;DHT22;6868;52.544;13.416;2022-08-21T15:26:56;23.80;99.90
13596;DHT22;6868;52.544;13.416;2022-08-21T15:29:25;23.80;99.90
13596;DHT22;6868;52.544;13.416;2022-08-21T15:31:53;23.80;99.90
13596;DHT22;6868;52.544;13.416;2022-08-21T15:34:21;23.80;99.90
13596;DHT22;6868;52.544;13.416;2022-08-21T15:36:48;23.80;99.90
13596;DHT22;6868;52.544;13.416;2022-08-21T15:39:16;24.00;99.90
13596;DHT22;6868;52.544;13.416;2022-08-21T15:41:43;24.10;99.90